sensor_id;sensor_type;location;lat;lon;timestamp;P1;durP1;ratioP1;P2;durP2;ratioP2
18893;SDS011;9579;49.488;8.226;2023-01-16T12:44:31;1.97;;;1.10;;
18893;SDS011;9579;49.488;8.226;2023-01-16T12:47:31;1.00;;;1.00;;
18893;SDS011;9579;49.488;8.226;2023-01-16T12:50:29;1.00;;;1.00;;
18893;SDS011;9579;49.488;8.226;2023-01-16T12:53:40;0.80;;;0.80;;
18893;SDS011;9579;49.488;8.226;2023-01-16T12:56:49;1.50;;;1.00;;
18893;SDS011;9579;49.488;8.226;2023-01-16T12:59:51;1.47;;;0.97;;
18893;SDS011;9579;49.488;8.226;2023-01-16T13:02:45;0.93;;;0.93;;
18893;SDS011;9579;49.488;8.226;2023-01-16T13:05:37;1.10;;;0.90;;
18893;SDS011;9579;49.488;8.226;2023-01-16T13:08:27;0.73;;;0.73;;
18893;SDS011;9579;49.488;8.226;2023-01-16T13:11:20;1.37;;;1.00;;
18893;SDS011;9579;49.488;8.226;2023-01-16T13:14:30;1.10;;;1.00;;
18893;SDS011;9579;49.488;8.226;2023-01-16T13:17:19;0.90;;;0.90;;
18893;SDS011;9579;49.488;8.226;2023-01-16T13:20:10;1.20;;;1.00;;
18893;SDS011;9579;49.488;8.226;2023-01-16T13:23:01;0.93;;;0.93;;
18893;SDS011;9579;49.488;8.226;2023-01-16T13:25:53;0.80;;;0.80;;
18893;SDS011;9579;49.488;8.226;2023-01-16T13:28:49;1.00;;;1.00;;
18893;SDS011;9579;49.488;8.226;2023-01-16T13:31:43;1.83;;;1.73;;
18893;SDS011;9579;49.488;8.226;2023-01-16T13:34:34;2.27;;;1.80;;
18893;SDS011;9579;49.488;8.226;2023-01-16T13:37:35;2.00;;;1.90;;
18893;SDS011;9579;49.488;8.226;2023-01-16T13:40:34;1.60;;;1.50;;
18893;SDS011;9579;49.488;8.226;2023-01-16T13:43:38;1.50;;;1.40;;
18893;SDS011;9579;49.488;8.226;2023-01-16T13:46:47;0.90;;;0.90;;
18893;SDS011;9579;49.488;8.226;2023-01-16T13:49:34;1.13;;;0.90;;
18893;SDS011;9579;49.488;8.226;2023-01-16T13:52:24;0.80;;;0.80;;
18893;SDS011;9579;49.488;8.226;2023-01-16T13:55:18;0.77;;;0.77;;
18893;SDS011;9579;49.488;8.226;2023-01-16T13:58:13;0.70;;;0.70;;
18893;SDS011;9579;49.488;8.226;2023-01-16T14:01:04;0.70;;;0.70;;
18893;SDS011;9579;49.488;8.226;2023-01-16T14:11:02;0.70;;;0.70;;
18893;SDS011;9579;49.488;8.226;2023-01-16T14:14:16;0.70;;;0.60;;
18893;SDS011;9579;49.488;8.226;2023-01-16T14:20:52;1.37;;;0.80;;
18893;SDS011;9579;49.488;8.226;2023-01-16T14:23:50;0.77;;;0.77;;
18893;SDS011;9579;49.488;8.226;2023-01-16T14:26:51;0.70;;;0.70;;
18893;SDS011;9579;49.488;8.226;2023-01-16T14:29:46;0.70;;;0.70;;
18893;SDS011;9579;49.488;8.226;2023-01-16T14:32:35;0.70;;;0.70;;
18893;SDS011;9579;49.488;8.226;2023-01-16T14:35:31;0.70;;;0.70;;
18893;SDS011;9579;49.488;8.226;2023-01-16T14:38:30;0.80;;;0.80;;
18893;SDS011;9579;49.488;8.226;2023-01-16T14:41:21;0.93;;;0.77;;
18893;SDS011;9579;49.488;8.226;2023-01-16T14:44:33;1.40;;;0.90;;
18893;SDS011;9579;49.488;8.226;2023-01-16T14:48:32;1.33;;;0.90;;
18893;SDS011;9579;49.488;8.226;2023-01-16T14:51:53;1.67;;;0.80;;
18893;SDS011;9579;49.488;8.226;2023-01-16T14:55:01;0.77;;;0.70;;
18893;SDS011;9579;49.488;8.226;2023-01-16T14:58:01;0.80;;;0.70;;
18893;SDS011;9579;49.488;8.226;2023-01-16T15:00:49;3.03;;;1.10;;
18893;SDS011;9579;49.488;8.226;2023-01-16T15:03:39;1.27;;;0.93;;
18893;SDS011;9579;49.488;8.226;2023-01-16T15:06:30;1.07;;;0.97;;
18893;SDS011;9579;49.488;8.226;2023-01-16T15:09:21;1.70;;;1.20;;
18893;SDS011;9579;49.488;8.226;2023-01-16T15:12:11;1.20;;;1.10;;
18893;SDS011;9579;49.488;8.226;2023-01-16T15:14:59;1.67;;;1.00;;
18893;SDS011;9579;49.488;8.226;2023-01-16T15:17:48;2.40;;;0.97;;
18893;SDS011;9579;49.488;8.226;2023-01-16T15:20:53;1.77;;;0.90;;
18893;SDS011;9579;49.488;8.226;2023-01-16T15:23:58;1.30;;;1.00;;
18893;SDS011;9579;49.488;8.226;2023-01-16T15:26:51;1.10;;;1.00;;
18893;SDS011;9579;49.488;8.226;2023-01-16T15:29:47;1.73;;;0.93;;
18893;SDS011;9579;49.488;8.226;2023-01-16T15:36:11;1.00;;;1.00;;
18893;SDS011;9579;49.488;8.226;2023-01-16T15:39:12;0.97;;;0.90;;
18893;SDS011;9579;49.488;8.226;2023-01-16T15:42:04;1.30;;;1.00;;
18893;SDS011;9579;49.488;8.226;2023-01-16T15:45:17;2.03;;;1.23;;
18893;SDS011;9579;49.488;8.226;2023-01-16T15:48:27;1.30;;;1.20;;
18893;SDS011;9579;49.488;8.226;2023-01-16T15:51:25;0.90;;;0.90;;
18893;SDS011;9579;49.488;8.226;2023-01-16T15:54:12;1.10;;;1.00;;
18893;SDS011;9579;49.488;8.226;2023-01-16T15:57:01;1.17;;;1.07;;
18893;SDS011;9579;49.488;8.226;2023-01-16T15:59:50;0.90;;;0.90;;
18893;SDS011;9579;49.488;8.226;2023-01-16T16:02:42;1.10;;;1.00;;
18893;SDS011;9579;49.488;8.226;2023-01-16T16:05:29;1.00;;;1.00;;
18893;SDS011;9579;49.488;8.226;2023-01-16T16:08:19;1.30;;;1.20;;
18893;SDS011;9579;49.488;8.226;2023-01-16T16:11:08;1.30;;;1.20;;
18893;SDS011;9579;49.488;8.226;2023-01-16T16:14:29;1.20;;;1.10;;
18893;SDS011;9579;49.488;8.226;2023-01-16T16:17:36;1.60;;;1.27;;
18893;SDS011;9579;49.488;8.226;2023-01-16T16:20:42;1.33;;;1.10;;
18893;SDS011;9579;49.488;8.226;2023-01-16T16:23:31;1.20;;;1.07;;
18893;SDS011;9579;49.488;8.226;2023-01-16T16:26:19;1.30;;;1.20;;
18893;SDS011;9579;49.488;8.226;2023-01-16T16:29:14;1.67;;;1.20;;
18893;SDS011;9579;49.488;8.226;2023-01-16T16:32:06;2.50;;;2.30;;
18893;SDS011;9579;49.488;8.226;2023-01-16T16:34:58;1.30;;;1.20;;
18893;SDS011;9579;49.488;8.226;2023-01-16T16:37:47;1.63;;;1.53;;
18893;SDS011;9579;49.488;8.226;2023-01-16T16:40:34;1.60;;;1.50;;
18893;SDS011;9579;49.488;8.226;2023-01-16T16:43:29;1.50;;;1.40;;
18893;SDS011;9579;49.488;8.226;2023-01-16T16:46:31;2.57;;;1.80;;
18893;SDS011;9579;49.488;8.226;2023-01-16T16:49:26;1.50;;;1.30;;
18893;SDS011;9579;49.488;8.226;2023-01-16T16:52:22;1.20;;;1.10;;
18893;SDS011;9579;49.488;8.226;2023-01-16T16:55:28;1.10;;;1.10;;
18893;SDS011;9579;49.488;8.226;2023-01-16T16:58:17;0.90;;;0.90;;
18893;SDS011;9579;49.488;8.226;2023-01-16T17:01:06;0.60;;;0.60;;
18893;SDS011;9579;49.488;8.226;2023-01-16T17:03:58;0.80;;;0.80;;
18893;SDS011;9579;49.488;8.226;2023-01-16T17:06:49;0.77;;;0.77;;
18893;SDS011;9579;49.488;8.226;2023-01-16T17:09:37;0.57;;;0.57;;
18893;SDS011;9579;49.488;8.226;2023-01-16T17:12:25;0.70;;;0.70;;
18893;SDS011;9579;49.488;8.226;2023-01-16T17:15:13;0.60;;;0.60;;
18893;SDS011;9579;49.488;8.226;2023-01-16T17:18:00;1.03;;;0.60;;
18893;SDS011;9579;49.488;8.226;2023-01-16T17:20:47;0.60;;;0.60;;
18893;SDS011;9579;49.488;8.226;2023-01-16T17:23:34;0.60;;;0.60;;
18893;SDS011;9579;49.488;8.226;2023-01-16T17:26:21;0.50;;;0.50;;
18893;SDS011;9579;49.488;8.226;2023-01-16T17:29:09;0.50;;;0.50;;
18893;SDS011;9579;49.488;8.226;2023-01-16T17:31:57;0.57;;;0.57;;
18893;SDS011;9579;49.488;8.226;2023-01-16T17:34:56;0.43;;;0.43;;
18893;SDS011;9579;49.488;8.226;2023-01-16T17:37:44;0.40;;;0.40;;
18893;SDS011;9579;49.488;8.226;2023-01-16T17:40:32;0.60;;;0.60;;
18893;SDS011;9579;49.488;8.226;2023-01-16T17:43:22;0.50;;;0.50;;
18893;SDS011;9579;49.488;8.226;2023-01-16T17:46:27;0.50;;;0.50;;
18893;SDS011;9579;49.488;8.226;2023-01-16T17:49:14;0.60;;;0.60;;
18893;SDS011;9579;49.488;8.226;2023-01-16T17:52:01;0.67;;;0.67;;
18893;SDS011;9579;49.488;8.226;2023-01-16T17:54:48;0.60;;;0.60;;
18893;SDS011;9579;49.488;8.226;2023-01-16T17:57:52;0.50;;;0.50;;
18893;SDS011;9579;49.488;8.226;2023-01-16T18:00:39;0.60;;;0.60;;
18893;SDS011;9579;49.488;8.226;2023-01-16T18:03:28;0.53;;;0.53;;
18893;SDS011;9579;49.488;8.226;2023-01-16T18:06:16;1.27;;;1.17;;
18893;SDS011;9579;49.488;8.226;2023-01-16T18:09:03;0.80;;;0.80;;
18893;SDS011;9579;49.488;8.226;2023-01-16T18:11:52;0.50;;;0.50;;
18893;SDS011;9579;49.488;8.226;2023-01-16T18:14:56;0.40;;;0.40;;
18893;SDS011;9579;49.488;8.226;2023-01-16T18:18:09;0.53;;;0.53;;
18893;SDS011;9579;49.488;8.226;2023-01-16T18:20:58;0.50;;;0.50;;
18893;SDS011;9579;49.488;8.226;2023-01-16T18:24:03;1.10;;;1.10;;
18893;SDS011;9579;49.488;8.226;2023-01-16T18:26:50;0.60;;;0.60;;
18893;SDS011;9579;49.488;8.226;2023-01-16T18:29:39;0.70;;;0.70;;
18893;SDS011;9579;49.488;8.226;2023-01-16T18:32:27;0.60;;;0.60;;
18893;SDS011;9579;49.488;8.226;2023-01-16T18:35:14;0.70;;;0.70;;
18893;SDS011;9579;49.488;8.226;2023-01-16T18:38:02;0.50;;;0.50;;
18893;SDS011;9579;49.488;8.226;2023-01-16T18:41:07;1.30;;;1.20;;
18893;SDS011;9579;49.488;8.226;2023-01-16T18:44:17;1.57;;;1.30;;
